Time;durP1;ratioP1;P1;durP2;ratioP2;P2;SDS_P1;SDS_P2;PMS_P1;PMS_P2;Temp;Humidity;BMP_temperature;BMP_pressure;BME280_temperature;BME280_humidity;BME280_pressure;Samples;Min_cycle;Max_cycle;Signal;HPM_P1;HPM_P2
2022/05/12 00:00:48;;;;;;;5.299999;4.799999;;;;;;;16.72;53.63574;95265.6;;;;
2022/05/12 00:01:49;;;;;;;5.299999;4.799999;;;;;;;16.72;53.63574;95265.6;;;;
2022/05/12 00:02:49;;;;;;;5.299999;4.799999;;;;;;;16.72;53.63574;95265.6;;;;
2022/05/12 00:03:50;;;;;;;5.299999;4.799999;;;;;;;16.72;53.63574;95265.6;;;;
2022/05/12 00:04:51;;;;;;;5.299999;4.799999;;;;;;;16.72;53.63574;95265.6;;;;
2022/05/12 00:05:51;;;;;;;5.299999;4.799999;;;;;;;16.72;53.63574;95265.6;;;;
2022/05/12 00:06:52;;;;;;;5.299999;4.799999;;;;;;;16.72;53.63574;95265.6;;;;
2022/05/12 00:07:52;;;;;;;5.299999;4.799999;;;;;;;16.72;53.63574;95265.6;;;;
2022/05/12 00:08:53;;;;;;;5.299999;4.799999;;;;;;;16.72;53.63574;95265.6;;;;
2022/05/12 00:09:54;;;;;;;5.25;4.75;;;;;;;16.58;54.17773;95265.61;;;;
2022/05/12 00:10:54;;;;;;;5.25;4.75;;;;;;;16.58;54.17773;95265.61;;;;
2022/05/12 00:11:55;;;;;;;5.25;4.75;;;;;;;16.58;54.17773;95265.61;;;;
2022/05/12 00:12:55;;;;;;;5.25;4.75;;;;;;;16.58;54.17773;95265.61;;;;
2022/05/12 00:13:58;;;;;;;5.25;4.75;;;;;;;16.58;54.17773;95265.61;;;;
2022/05/12 00:14:58;;;;;;;5.25;4.75;;;;;;;16.58;54.17773;95265.61;;;;
2022/05/12 00:15:58;;;;;;;5.25;4.75;;;;;;;16.58;54.17773;95265.61;;;;
2022/05/12 00:17:00;;;;;;;5.25;4.75;;;;;;;16.58;54.17773;95265.61;;;;
2022/05/12 00:18:03;;;;;;;5.25;4.75;;;;;;;16.58;54.17773;95265.61;;;;
2022/05/12 00:19:06;;;;;;;5.25;4.75;;;;;;;16.58;54.17773;95265.61;;;;
2022/05/12 00:20:07;;;;;;;5.25;4.75;;;;;;;16.58;54.17773;95265.61;;;;
2022/05/12 00:21:09;;;;;;;5.599999;5.099999;;;;;;;16.54;54.53613;95260.99;;;;
2022/05/12 00:22:09;;;;;;;5.599999;5.099999;;;;;;;16.54;54.53613;95260.99;;;;
2022/05/12 00:23:10;;;;;;;5.599999;5.099999;;;;;;;16.54;54.53613;95260.99;;;;
2022/05/12 00:24:16;;;;;;;5.599999;5.099999;;;;;;;16.54;54.53613;95260.99;;;;
2022/05/12 00:25:16;;;;;;;5.599999;5.099999;;;;;;;16.54;54.53613;95260.99;;;;
2022/05/12 00:26:20;;;;;;;5.599999;5.099999;;;;;;;16.54;54.53613;95260.99;;;;
2022/05/12 00:27:20;;;;;;;5.599999;5.099999;;;;;;;16.54;54.53613;95260.99;;;;
2022/05/12 00:28:21;;;;;;;5.599999;5.099999;;;;;;;16.54;54.53613;95260.99;;;;
2022/05/12 00:29:25;;;;;;;5.599999;5.099999;;;;;;;16.54;54.53613;95260.99;;;;
2022/05/12 00:30:26;;;;;;;5.599999;5.099999;;;;;;;16.54;54.53613;95260.99;;;;
2022/05/12 00:31:26;;;;;;;6.099999;4.55;;;;;;;16.5;54.96973;95262.42;;;;
2022/05/12 00:32:29;;;;;;;6.099999;4.55;;;;;;;16.5;54.96973;95262.42;;;;
2022/05/12 00:33:30;;;;;;;6.099999;4.55;;;;;;;16.5;54.96973;95262.42;;;;
2022/05/12 00:34:30;;;;;;;6.099999;4.55;;;;;;;16.5;54.96973;95262.42;;;;
2022/05/12 00:35:31;;;;;;;6.099999;4.55;;;;;;;16.5;54.96973;95262.42;;;;
2022/05/12 00:36:32;;;;;;;6.099999;4.55;;;;;;;16.5;54.96973;95262.42;;;;
2022/05/12 00:37:33;;;;;;;6.099999;4.55;;;;;;;16.5;54.96973;95262.42;;;;
2022/05/12 00:38:34;;;;;;;6.099999;4.55;;;;;;;16.5;54.96973;95262.42;;;;
2022/05/12 00:39:34;;;;;;;6.099999;4.55;;;;;;;16.5;54.96973;95262.42;;;;
2022/05/12 00:40:35;;;;;;;6.099999;4.55;;;;;;;16.5;54.96973;95262.42;;;;
2022/05/12 00:41:37;;;;;;;6.099999;4.55;;;;;;;16.5;54.96973;95262.42;;;;
2022/05/12 00:42:42;;;;;;;5.5;5;;;;;;;16.44;55.3457;95259.53;;;;
2022/05/12 00:44:02;;;;;;;5.5;5;;;;;;;16.44;55.3457;95259.53;;;;
2022/05/12 00:45:06;;;;;;;5.5;5;;;;;;;16.44;55.3457;95259.53;;;;
2022/05/12 00:46:07;;;;;;;5.5;5;;;;;;;16.44;55.3457;95259.53;;;;
2022/05/12 00:47:10;;;;;;;5.5;5;;;;;;;16.44;55.3457;95259.53;;;;
2022/05/12 00:48:10;;;;;;;5.5;5;;;;;;;16.44;55.3457;95259.53;;;;
2022/05/12 00:49:11;;;;;;;5.5;5;;;;;;;16.44;55.3457;95259.53;;;;
2022/05/12 00:50:14;;;;;;;5.5;5;;;;;;;16.44;55.3457;95259.53;;;;
2022/05/12 00:51:16;;;;;;;5.5;5;;;;;;;16.44;55.3457;95259.53;;;;
2022/05/12 00:52:19;;;;;;;5.5;5;;;;;;;16.44;55.3457;95259.53;;;;
2022/05/12 00:53:22;;;;;;;5.699999;4.849999;;;;;;;16.23;55.71289;95260.33;;;;
2022/05/12 00:54:23;;;;;;;5.699999;4.849999;;;;;;;16.23;55.71289;95260.33;;;;
2022/05/12 00:55:29;;;;;;;5.699999;4.849999;;;;;;;16.23;55.71289;95260.33;;;;
2022/05/12 00:56:35;;;;;;;5.699999;4.849999;;;;;;;16.23;55.71289;95260.33;;;;
2022/05/12 00:57:36;;;;;;;5.699999;4.849999;;;;;;;16.23;55.71289;95260.33;;;;
2022/05/12 00:58:40;;;;;;;5.699999;4.849999;;;;;;;16.23;55.71289;95260.33;;;;
2022/05/12 00:59:41;;;;;;;5.699999;4.849999;;;;;;;16.23;55.71289;95260.33;;;;
2022/05/12 01:00:42;;;;;;;5.699999;4.849999;;;;;;;16.23;55.71289;95260.33;;;;
2022/05/12 01:01:43;;;;;;;5.699999;4.849999;;;;;;;16.23;55.71289;95260.33;;;;
2022/05/12 01:02:44;;;;;;;5.699999;4.849999;;;;;;;16.23;55.71289;95260.33;;;;
2022/05/12 01:03:48;;;;;;;5.95;5.349999;;;;;;;16.08;56.14355;95265.86;;;;
2022/05/12 01:04:50;;;;;;;5.95;5.349999;;;;;;;16.08;56.14355;95265.86;;;;
2022/05/12 01:05:51;;;;;;;5.95;5.349999;;;;;;;16.08;56.14355;95265.86;;;;
2022/05/12 01:06:52;;;;;;;5.95;5.349999;;;;;;;16.08;56.14355;95265.86;;;;
2022/05/12 01:07:55;;;;;;;5.95;5.349999;;;;;;;16.08;56.14355;95265.86;;;;
2022/05/12 01:08:57;;;;;;;5.95;5.349999;;;;;;;16.08;56.14355;95265.86;;;;
2022/05/12 01:10:00;;;;;;;5.95;5.349999;;;;;;;16.08;56.14355;95265.86;;;;
2022/05/12 01:11:03;;;;;;;5.95;5.349999;;;;;;;16.08;56.14355;95265.86;;;;
2022/05/12 01:12:10;;;;;;;5.95;5.349999;;;;;;;16.08;56.14355;95265.86;;;;
2022/05/12 01:13:11;;;;;;;5.95;5.349999;;;;;;;16.08;56.14355;95265.86;;;;
2022/05/12 01:14:12;;;;;;;5.149999;4.75;;;;;;;15.91;56.64844;95267.22;;;;
2022/05/12 01:15:12;;;;;;;5.149999;4.75;;;;;;;15.91;56.64844;95267.22;;;;
2022/05/12 01:16:13;;;;;;;5.149999;4.75;;;;;;;15.91;56.64844;95267.22;;;;
2022/05/12 01:17:38;;;;;;;5.149999;4.75;;;;;;;15.91;56.64844;95267.22;;;;
2022/05/12 01:18:38;;;;;;;5.149999;4.75;;;;;;;15.91;56.64844;95267.22;;;;
2022/05/12 01:19:39;;;;;;;5.149999;4.75;;;;;;;15.91;56.64844;95267.22;;;;
2022/05/12 01:20:41;;;;;;;5.149999;4.75;;;;;;;15.91;56.64844;95267.22;;;;
2022/05/12 01:21:41;;;;;;;5.149999;4.75;;;;;;;15.91;56.64844;95267.22;;;;
2022/05/12 01:22:43;;;;;;;5.149999;4.75;;;;;;;15.91;56.64844;95267.22;;;;
2022/05/12 01:23:53;;;;;;;5.149999;4.75;;;;;;;15.91;56.64844;95267.22;;;;
2022/05/12 01:24:54;;;;;;;5.4;4.9;;;;;;;16.12;56.7627;95271.89;;;;
2022/05/12 01:25:54;;;;;;;5.4;4.9;;;;;;;16.12;56.7627;95271.89;;;;
2022/05/12 01:27:18;;;;;;;5.4;4.9;;;;;;;16.12;56.7627;95271.89;;;;
2022/05/12 01:28:19;;;;;;;5.4;4.9;;;;;;;16.12;56.7627;95271.89;;;;
2022/05/12 01:29:20;;;;;;;5.4;4.9;;;;;;;16.12;56.7627;95271.89;;;;
2022/05/12 01:30:20;;;;;;;5.4;4.9;;;;;;;16.12;56.7627;95271.89;;;;
2022/05/12 01:31:23;;;;;;;5.4;4.9;;;;;;;16.12;56.7627;95271.89;;;;
2022/05/12 01:32:23;;;;;;;5.4;4.9;;;;;;;16.12;56.7627;95271.89;;;;
2022/05/12 01:33:28;;;;;;;5.4;4.9;;;;;;;16.12;56.7627;95271.89;;;;
2022/05/12 01:34:30;;;;;;;5.4;4.9;;;;;;;16.12;56.7627;95271.89;;;;
2022/05/12 01:35:32;;;;;;;6.649999;4.95;;;;;;;16.25;56.8125;95270.61;;;;
2022/05/12 01:36:32;;;;;;;6.649999;4.95;;;;;;;16.25;56.8125;95270.61;;;;
2022/05/12 01:37:35;;;;;;;6.649999;4.95;;;;;;;16.25;56.8125;95270.61;;;;
2022/05/12 01:38:38;;;;;;;6.649999;4.95;;;;;;;16.25;56.8125;95270.61;;;;
2022/05/12 01:39:39;;;;;;;6.649999;4.95;;;;;;;16.25;56.8125;95270.61;;;;
2022/05/12 01:40:39;;;;;;;6.649999;4.95;;;;;;;16.25;56.8125;95270.61;;;;
2022/05/12 01:41:42;;;;;;;6.649999;4.95;;;;;;;16.25;56.8125;95270.61;;;;
2022/05/12 01:42:42;;;;;;;6.649999;4.95;;;;;;;16.25;56.8125;95270.61;;;;
2022/05/12 01:43:43;;;;;;;6.649999;4.95;;;;;;;16.25;56.8125;95270.61;;;;
2022/05/12 01:44:44;;;;;;;6.649999;4.95;;;;;;;16.25;56.8125;95270.61;;;;
2022/05/12 01:45:44;;;;;;;6.649999;4.95;;;;;;;16.25;56.8125;95270.61;;;;
2022/05/12 01:46:45;;;;;;;5.1;4.65;;;;;;;16.4;56.85352;95274.41;;;;
2022/05/12 01:47:46;;;;;;;5.1;4.65;;;;;;;16.4;56.85352;95274.41;;;;
2022/05/12 01:48:46;;;;;;;5.1;4.65;;;;;;;16.4;56.85352;95274.41;;;;
2022/05/12 01:49:48;;;;;;;5.1;4.65;;;;;;;16.4;56.85352;95274.41;;;;
2022/05/12 01:50:48;;;;;;;5.1;4.65;;;;;;;16.4;56.85352;95274.41;;;;
2022/05/12 01:51:48;;;;;;;5.1;4.65;;;;;;;16.4;56.85352;95274.41;;;;
2022/05/12 01:52:52;;;;;;;5.1;4.65;;;;;;;16.4;56.85352;95274.41;;;;
2022/05/12 01:53:52;;;;;;;5.1;4.65;;;;;;;16.4;56.85352;95274.41;;;;
2022/05/12 01:54:53;;;;;;;5.1;4.65;;;;;;;16.4;56.85352;95274.41;;;;
2022/05/12 01:55:53;;;;;;;5.1;4.65;;;;;;;16.4;56.85352;95274.41;;;;
2022/05/12 01:56:54;;;;;;;7.650001;4.8;;;;;;;16.46;56.73047;95270.25;;;;
2022/05/12 01:57:57;;;;;;;7.650001;4.8;;;;;;;16.46;56.73047;95270.25;;;;
2022/05/12 01:58:58;;;;;;;7.650001;4.8;;;;;;;16.46;56.73047;95270.25;;;;
2022/05/12 01:59:58;;;;;;;7.650001;4.8;;;;;;;16.46;56.73047;95270.25;;;;
2022/05/12 02:00:59;;;;;;;7.650001;4.8;;;;;;;16.46;56.73047;95270.25;;;;
2022/05/12 02:01:59;;;;;;;7.650001;4.8;;;;;;;16.46;56.73047;95270.25;;;;
2022/05/12 02:03:00;;;;;;;7.650001;4.8;;;;;;;16.46;56.73047;95270.25;;;;
2022/05/12 02:04:02;;;;;;;7.650001;4.8;;;;;;;16.46;56.73047;95270.25;;;;
2022/05/12 02:05:03;;;;;;;7.650001;4.8;;;;;;;16.46;56.73047;95270.25;;;;
2022/05/12 02:06:04;;;;;;;7.650001;4.8;;;;;;;16.46;56.73047;95270.25;;;;
2022/05/12 02:07:04;;;;;;;7.650001;4.8;;;;;;;16.46;56.73047;95270.25;;;;
2022/05/12 02:08:06;;;;;;;6.450001;5;;;;;;;16.56;56.91797;95275.72;;;;
2022/05/12 02:09:09;;;;;;;6.450001;5;;;;;;;16.56;56.91797;95275.72;;;;
2022/05/12 02:10:11;;;;;;;6.450001;5;;;;;;;16.56;56.91797;95275.72;;;;
2022/05/12 02:11:15;;;;;;;6.450001;5;;;;;;;16.56;56.91797;95275.72;;;;
2022/05/12 02:12:16;;;;;;;6.450001;5;;;;;;;16.56;56.91797;95275.72;;;;
2022/05/12 02:13:18;;;;;;;6.450001;5;;;;;;;16.56;56.91797;95275.72;;;;
2022/05/12 02:14:19;;;;;;;6.450001;5;;;;;;;16.56;56.91797;95275.72;;;;
2022/05/12 02:15:19;;;;;;;6.450001;5;;;;;;;16.56;56.91797;95275.72;;;;
2022/05/12 02:16:22;;;;;;;6.450001;5;;;;;;;16.56;56.91797;95275.72;;;;
2022/05/12 02:17:23;;;;;;;6.450001;5;;;;;;;16.56;56.91797;95275.72;;;;
2022/05/12 02:18:24;;;;;;;4.95;4.55;;;;;;;16.59;57.02051;95270.39;;;;
2022/05/12 02:19:27;;;;;;;4.95;4.55;;;;;;;16.59;57.02051;95270.39;;;;
2022/05/12 02:20:27;;;;;;;4.95;4.55;;;;;;;16.59;57.02051;95270.39;;;;
2022/05/12 02:21:28;;;;;;;4.95;4.55;;;;;;;16.59;57.02051;95270.39;;;;
2022/05/12 02:22:28;;;;;;;4.95;4.55;;;;;;;16.59;57.02051;95270.39;;;;
2022/05/12 02:23:29;;;;;;;4.95;4.55;;;;;;;16.59;57.02051;95270.39;;;;
2022/05/12 02:24:30;;;;;;;4.95;4.55;;;;;;;16.59;57.02051;95270.39;;;;
2022/05/12 02:25:31;;;;;;;4.95;4.55;;;;;;;16.59;57.02051;95270.39;;;;
2022/05/12 02:26:32;;;;;;;4.95;4.55;;;;;;;16.59;57.02051;95270.39;;;;
2022/05/12 02:27:32;;;;;;;4.95;4.55;;;;;;;16.59;57.02051;95270.39;;;;
2022/05/12 02:28:33;;;;;;;4.95;4.55;;;;;;;16.59;57.02051;95270.39;;;;
2022/05/12 02:29:34;;;;;;;5.550001;4.950001;;;;;;;16.72;56.98242;95282.44;;;;
2022/05/12 02:30:34;;;;;;;5.550001;4.950001;;;;;;;16.72;56.98242;95282.44;;;;
2022/05/12 02:31:35;;;;;;;5.550001;4.950001;;;;;;;16.72;56.98242;95282.44;;;;
2022/05/12 02:32:36;;;;;;;5.550001;4.950001;;;;;;;16.72;56.98242;95282.44;;;;
2022/05/12 02:33:38;;;;;;;5.550001;4.950001;;;;;;;16.72;56.98242;95282.44;;;;
2022/05/12 02:34:38;;;;;;;5.550001;4.950001;;;;;;;16.72;56.98242;95282.44;;;;
2022/05/12 02:35:39;;;;;;;5.550001;4.950001;;;;;;;16.72;56.98242;95282.44;;;;
2022/05/12 02:36:40;;;;;;;5.550001;4.950001;;;;;;;16.72;56.98242;95282.44;;;;
2022/05/12 02:37:40;;;;;;;5.550001;4.950001;;;;;;;16.72;56.98242;95282.44;;;;
2022/05/12 02:38:41;;;;;;;5.550001;4.950001;;;;;;;16.72;56.98242;95282.44;;;;
2022/05/12 02:39:42;;;;;;;6.400001;4.8;;;;;;;16.82;57.03906;95283.48;;;;
2022/05/12 02:40:42;;;;;;;6.400001;4.8;;;;;;;16.82;57.03906;95283.48;;;;
2022/05/12 02:41:43;;;;;;;6.400001;4.8;;;;;;;16.82;57.03906;95283.48;;;;
2022/05/12 02:42:43;;;;;;;6.400001;4.8;;;;;;;16.82;57.03906;95283.48;;;;
2022/05/12 02:43:44;;;;;;;6.400001;4.8;;;;;;;16.82;57.03906;95283.48;;;;
2022/05/12 02:44:45;;;;;;;6.400001;4.8;;;;;;;16.82;57.03906;95283.48;;;;
2022/05/12 02:45:45;;;;;;;6.400001;4.8;;;;;;;16.82;57.03906;95283.48;;;;
2022/05/12 02:46:46;;;;;;;6.400001;4.8;;;;;;;16.82;57.03906;95283.48;;;;
2022/05/12 02:47:46;;;;;;;6.400001;4.8;;;;;;;16.82;57.03906;95283.48;;;;
2022/05/12 02:48:47;;;;;;;6.400001;4.8;;;;;;;16.82;57.03906;95283.48;;;;
2022/05/12 02:49:48;;;;;;;6.400001;4.8;;;;;;;16.82;57.03906;95283.48;;;;
2022/05/12 02:50:48;;;;;;;4.900001;4.400001;;;;;;;17.12;56.92383;95286.08;;;;
2022/05/12 02:51:49;;;;;;;4.900001;4.400001;;;;;;;17.12;56.92383;95286.08;;;;
2022/05/12 02:52:50;;;;;;;4.900001;4.400001;;;;;;;17.12;56.92383;95286.08;;;;
2022/05/12 02:53:51;;;;;;;4.900001;4.400001;;;;;;;17.12;56.92383;95286.08;;;;
2022/05/12 02:54:51;;;;;;;4.900001;4.400001;;;;;;;17.12;56.92383;95286.08;;;;
2022/05/12 02:55:52;;;;;;;4.900001;4.400001;;;;;;;17.12;56.92383;95286.08;;;;
2022/05/12 02:56:55;;;;;;;4.900001;4.400001;;;;;;;17.12;56.92383;95286.08;;;;
2022/05/12 02:57:56;;;;;;;4.900001;4.400001;;;;;;;17.12;56.92383;95286.08;;;;
2022/05/12 02:58:56;;;;;;;4.900001;4.400001;;;;;;;17.12;56.92383;95286.08;;;;
2022/05/12 02:59:57;;;;;;;4.900001;4.400001;;;;;;;17.12;56.92383;95286.08;;;;
2022/05/12 03:00:57;;;;;;;6.349999;4.6;;;;;;;17.43;56.71191;95288.37;;;;
2022/05/12 03:01:58;;;;;;;6.349999;4.6;;;;;;;17.43;56.71191;95288.37;;;;
2022/05/12 03:02:58;;;;;;;6.349999;4.6;;;;;;;17.43;56.71191;95288.37;;;;
2022/05/12 03:04:00;;;;;;;6.349999;4.6;;;;;;;17.43;56.71191;95288.37;;;;
2022/05/12 03:05:01;;;;;;;6.349999;4.6;;;;;;;17.43;56.71191;95288.37;;;;
2022/05/12 03:06:02;;;;;;;6.349999;4.6;;;;;;;17.43;56.71191;95288.37;;;;
2022/05/12 03:07:03;;;;;;;6.349999;4.6;;;;;;;17.43;56.71191;95288.37;;;;
2022/05/12 03:08:03;;;;;;;6.349999;4.6;;;;;;;17.43;56.71191;95288.37;;;;
2022/05/12 03:09:05;;;;;;;6.349999;4.6;;;;;;;17.43;56.71191;95288.37;;;;
2022/05/12 03:10:06;;;;;;;6.349999;4.6;;;;;;;17.43;56.71191;95288.37;;;;
2022/05/12 03:11:08;;;;;;;6.349999;4.6;;;;;;;17.43;56.71191;95288.37;;;;
2022/05/12 03:12:09;;;;;;;6.35;4.699999;;;;;;;17.68;56.54492;95305.6;;;;
2022/05/12 03:13:10;;;;;;;6.35;4.699999;;;;;;;17.68;56.54492;95305.6;;;;
2022/05/12 03:14:11;;;;;;;6.35;4.699999;;;;;;;17.68;56.54492;95305.6;;;;
2022/05/12 03:15:12;;;;;;;6.35;4.699999;;;;;;;17.68;56.54492;95305.6;;;;
2022/05/12 03:16:13;;;;;;;6.35;4.699999;;;;;;;17.68;56.54492;95305.6;;;;
2022/05/12 03:17:13;;;;;;;6.35;4.699999;;;;;;;17.68;56.54492;95305.6;;;;
2022/05/12 03:18:14;;;;;;;6.35;4.699999;;;;;;;17.68;56.54492;95305.6;;;;
2022/05/12 03:19:14;;;;;;;6.35;4.699999;;;;;;;17.68;56.54492;95305.6;;;;
2022/05/12 03:20:15;;;;;;;6.35;4.699999;;;;;;;17.68;56.54492;95305.6;;;;
2022/05/12 03:21:18;;;;;;;6.35;4.699999;;;;;;;17.68;56.54492;95305.6;;;;
2022/05/12 03:22:20;;;;;;;4.599999;4.2;;;;;;;17.86;56.43555;95306.14;;;;
2022/05/12 03:23:22;;;;;;;4.599999;4.2;;;;;;;17.86;56.43555;95306.14;;;;
2022/05/12 03:24:23;;;;;;;4.599999;4.2;;;;;;;17.86;56.43555;95306.14;;;;
2022/05/12 03:25:23;;;;;;;4.599999;4.2;;;;;;;17.86;56.43555;95306.14;;;;
2022/05/12 03:26:24;;;;;;;4.599999;4.2;;;;;;;17.86;56.43555;95306.14;;;;
2022/05/12 03:27:25;;;;;;;4.599999;4.2;;;;;;;17.86;56.43555;95306.14;;;;
2022/05/12 03:28:25;;;;;;;4.599999;4.2;;;;;;;17.86;56.43555;95306.14;;;;
2022/05/12 03:29:27;;;;;;;4.599999;4.2;;;;;;;17.86;56.43555;95306.14;;;;
2022/05/12 03:30:28;;;;;;;4.599999;4.2;;;;;;;17.86;56.43555;95306.14;;;;
2022/05/12 03:31:28;;;;;;;4.599999;4.2;;;;;;;17.86;56.43555;95306.14;;;;
2022/05/12 03:32:29;;;;;;;4.599999;4.2;;;;;;;17.86;56.43555;95306.14;;;;
2022/05/12 03:33:29;;;;;;;5.199999;4.25;;;;;;;18.05;56.29492;95312.28;;;;
2022/05/12 03:34:30;;;;;;;5.199999;4.25;;;;;;;18.05;56.29492;95312.28;;;;
2022/05/12 03:35:31;;;;;;;5.199999;4.25;;;;;;;18.05;56.29492;95312.28;;;;
2022/05/12 03:36:35;;;;;;;5.199999;4.25;;;;;;;18.05;56.29492;95312.28;;;;
2022/05/12 03:37:35;;;;;;;5.199999;4.25;;;;;;;18.05;56.29492;95312.28;;;;
2022/05/12 03:38:36;;;;;;;5.199999;4.25;;;;;;;18.05;56.29492;95312.28;;;;
2022/05/12 03:39:37;;;;;;;5.199999;4.25;;;;;;;18.05;56.29492;95312.28;;;;
2022/05/12 03:40:38;;;;;;;5.199999;4.25;;;;;;;18.05;56.29492;95312.28;;;;
2022/05/12 03:41:39;;;;;;;5.199999;4.25;;;;;;;18.05;56.29492;95312.28;;;;
2022/05/12 03:42:39;;;;;;;5.199999;4.25;;;;;;;18.05;56.29492;95312.28;;;;
2022/05/12 03:48:55;;;;;;;5.450001;4.149999;;;;;;;18.28;55.87402;95331.46;;;;
2022/05/12 03:49:57;;;;;;;5.450001;4.149999;;;;;;;18.28;55.87402;95331.46;;;;
2022/05/12 03:51:00;;;;;;;5.450001;4.149999;;;;;;;18.28;55.87402;95331.46;;;;
2022/05/12 03:52:00;;;;;;;5.450001;4.149999;;;;;;;18.28;55.87402;95331.46;;;;
2022/05/12 03:53:01;;;;;;;5.450001;4.149999;;;;;;;18.28;55.87402;95331.46;;;;
2022/05/12 03:54:03;;;;;;;5.450001;4.149999;;;;;;;18.28;55.87402;95331.46;;;;
2022/05/12 03:55:04;;;;;;;5.450001;4.149999;;;;;;;18.28;55.87402;95331.46;;;;
2022/05/12 03:56:07;;;;;;;5.450001;4.149999;;;;;;;18.28;55.87402;95331.46;;;;
2022/05/12 03:57:09;;;;;;;5.450001;4.149999;;;;;;;18.28;55.87402;95331.46;;;;
2022/05/12 03:58:12;;;;;;;5.450001;4.149999;;;;;;;18.28;55.87402;95331.46;;;;
2022/05/12 03:59:12;;;;;;;5.450001;4.149999;;;;;;;18.28;55.87402;95331.46;;;;
2022/05/12 04:00:13;;;;;;;5.450001;4.149999;;;;;;;18.28;55.87402;95331.46;;;;
2022/05/12 04:01:18;;;;;;;5.450001;4.149999;;;;;;;18.28;55.87402;95331.46;;;;
2022/05/12 04:02:18;;;;;;;5.450001;4.149999;;;;;;;18.28;55.87402;95331.46;;;;
2022/05/12 04:03:20;;;;;;;5.450001;4.149999;;;;;;;18.28;55.87402;95331.46;;;;
2022/05/12 04:04:20;;;;;;;5.450001;4.149999;;;;;;;18.28;55.87402;95331.46;;;;
2022/05/12 04:05:21;;;;;;;4.7;3.75;;;;;;;18.29;55.59863;95357.15;;;;
2022/05/12 04:06:22;;;;;;;4.7;3.75;;;;;;;18.29;55.59863;95357.15;;;;
2022/05/12 04:07:22;;;;;;;4.7;3.75;;;;;;;18.29;55.59863;95357.15;;;;
2022/05/12 04:08:23;;;;;;;4.7;3.75;;;;;;;18.29;55.59863;95357.15;;;;
2022/05/12 04:09:23;;;;;;;4.7;3.75;;;;;;;18.29;55.59863;95357.15;;;;
2022/05/12 04:10:25;;;;;;;4.7;3.75;;;;;;;18.29;55.59863;95357.15;;;;
2022/05/12 04:11:26;;;;;;;4.7;3.75;;;;;;;18.29;55.59863;95357.15;;;;
2022/05/12 04:12:27;;;;;;;4.7;3.75;;;;;;;18.29;55.59863;95357.15;;;;
2022/05/12 04:13:28;;;;;;;4.7;3.75;;;;;;;18.29;55.59863;95357.15;;;;
2022/05/12 04:14:28;;;;;;;4.7;3.75;;;;;;;18.29;55.59863;95357.15;;;;
2022/05/12 04:15:28;;;;;;;4.7;3.75;;;;;;;18.29;55.59863;95357.15;;;;
2022/05/12 04:16:31;;;;;;;6.799999;4;;;;;;;18.27;55.64063;95365.95;;;;
2022/05/12 04:17:32;;;;;;;6.799999;4;;;;;;;18.27;55.64063;95365.95;;;;
2022/05/12 04:18:33;;;;;;;6.799999;4;;;;;;;18.27;55.64063;95365.95;;;;
2022/05/12 04:19:33;;;;;;;6.799999;4;;;;;;;18.27;55.64063;95365.95;;;;
2022/05/12 04:20:34;;;;;;;6.799999;4;;;;;;;18.27;55.64063;95365.95;;;;
2022/05/12 04:21:37;;;;;;;6.799999;4;;;;;;;18.27;55.64063;95365.95;;;;
2022/05/12 04:22:40;;;;;;;6.799999;4;;;;;;;18.27;55.64063;95365.95;;;;
2022/05/12 04:23:41;;;;;;;6.799999;4;;;;;;;18.27;55.64063;95365.95;;;;
2022/05/12 04:24:42;;;;;;;6.799999;4;;;;;;;18.27;55.64063;95365.95;;;;
2022/05/12 04:25:43;;;;;;;6.799999;4;;;;;;;18.27;55.64063;95365.95;;;;
2022/05/12 04:26:43;;;;;;;4.099999;3.5;;;;;;;18.37;55.51074;95376.73;;;;
2022/05/12 04:27:44;;;;;;;4.099999;3.5;;;;;;;18.37;55.51074;95376.73;;;;
2022/05/12 04:28:45;;;;;;;4.099999;3.5;;;;;;;18.37;55.51074;95376.73;;;;
2022/05/12 04:29:46;;;;;;;4.099999;3.5;;;;;;;18.37;55.51074;95376.73;;;;
2022/05/12 04:30:47;;;;;;;4.099999;3.5;;;;;;;18.37;55.51074;95376.73;;;;
2022/05/12 04:31:47;;;;;;;4.099999;3.5;;;;;;;18.37;55.51074;95376.73;;;;
2022/05/12 04:32:48;;;;;;;4.099999;3.5;;;;;;;18.37;55.51074;95376.73;;;;
2022/05/12 04:38:59;;;;;;;5.85;3.8;;;;;;;18.64;55.11426;95388.59;;;;
2022/05/12 04:39:59;;;;;;;5.85;3.8;;;;;;;18.64;55.11426;95388.59;;;;
2022/05/12 04:41:05;;;;;;;5.85;3.8;;;;;;;18.64;55.11426;95388.59;;;;
2022/05/12 04:42:05;;;;;;;5.85;3.8;;;;;;;18.64;55.11426;95388.59;;;;
2022/05/12 04:43:06;;;;;;;5.85;3.8;;;;;;;18.64;55.11426;95388.59;;;;
2022/05/12 04:44:07;;;;;;;5.85;3.8;;;;;;;18.64;55.11426;95388.59;;;;
2022/05/12 04:45:07;;;;;;;5.85;3.8;;;;;;;18.64;55.11426;95388.59;;;;
2022/05/12 04:46:09;;;;;;;5.85;3.8;;;;;;;18.64;55.11426;95388.59;;;;
2022/05/12 04:47:09;;;;;;;5.85;3.8;;;;;;;18.64;55.11426;95388.59;;;;
2022/05/12 04:48:10;;;;;;;7.35;3.85;;;;;;;19.09;54.52051;95403.17;;;;
2022/05/12 04:49:10;;;;;;;7.35;3.85;;;;;;;19.09;54.52051;95403.17;;;;
2022/05/12 04:50:12;;;;;;;7.35;3.85;;;;;;;19.09;54.52051;95403.17;;;;
2022/05/12 04:51:16;;;;;;;7.35;3.85;;;;;;;19.09;54.52051;95403.17;;;;
2022/05/12 04:52:16;;;;;;;7.35;3.85;;;;;;;19.09;54.52051;95403.17;;;;
2022/05/12 04:53:17;;;;;;;7.35;3.85;;;;;;;19.09;54.52051;95403.17;;;;
2022/05/12 04:54:17;;;;;;;7.35;3.85;;;;;;;19.09;54.52051;95403.17;;;;
2022/05/12 04:55:18;;;;;;;7.35;3.85;;;;;;;19.09;54.52051;95403.17;;;;
2022/05/12 04:56:19;;;;;;;7.35;3.85;;;;;;;19.09;54.52051;95403.17;;;;
2022/05/12 04:57:20;;;;;;;7.35;3.85;;;;;;;19.09;54.52051;95403.17;;;;
2022/05/12 04:58:21;;;;;;;7.35;3.85;;;;;;;19.09;54.52051;95403.17;;;;
2022/05/12 04:59:22;;;;;;;7.35;3.85;;;;;;;19.09;54.52051;95403.17;;;;
2022/05/12 05:00:23;;;;;;;7.35;3.85;;;;;;;19.09;54.52051;95403.17;;;;
2022/05/12 05:01:28;;;;;;;7.35;3.85;;;;;;;19.09;54.52051;95403.17;;;;
2022/05/12 05:02:28;;;;;;;7.35;3.85;;;;;;;19.09;54.52051;95403.17;;;;
2022/05/12 05:03:29;;;;;;;7.35;3.85;;;;;;;19.09;54.52051;95403.17;;;;
2022/05/12 05:04:29;;;;;;;7.35;3.85;;;;;;;19.09;54.52051;95403.17;;;;
2022/05/12 05:05:30;;;;;;;7.35;3.85;;;;;;;19.09;54.52051;95403.17;;;;
2022/05/12 05:06:31;;;;;;;7.35;3.85;;;;;;;19.09;54.52051;95403.17;;;;
2022/05/12 05:07:32;;;;;;;7.35;3.85;;;;;;;19.09;54.52051;95403.17;;;;
2022/05/12 05:08:33;;;;;;;7.35;3.85;;;;;;;19.09;54.52051;95403.17;;;;
2022/05/12 05:09:34;;;;;;;4.849999;3.65;;;;;;;20.15;53.06738;95421.72;;;;
2022/05/12 05:10:34;;;;;;;4.849999;3.65;;;;;;;20.15;53.06738;95421.72;;;;
2022/05/12 05:11:37;;;;;;;4.849999;3.65;;;;;;;20.15;53.06738;95421.72;;;;
2022/05/12 05:12:39;;;;;;;4.849999;3.65;;;;;;;20.15;53.06738;95421.72;;;;
2022/05/12 05:13:40;;;;;;;4.849999;3.65;;;;;;;20.15;53.06738;95421.72;;;;
2022/05/12 05:14:41;;;;;;;4.849999;3.65;;;;;;;20.15;53.06738;95421.72;;;;
2022/05/12 05:15:42;;;;;;;4.849999;3.65;;;;;;;20.15;53.06738;95421.72;;;;
2022/05/12 05:16:42;;;;;;;4.849999;3.65;;;;;;;20.15;53.06738;95421.72;;;;
2022/05/12 05:17:43;;;;;;;4.849999;3.65;;;;;;;20.15;53.06738;95421.72;;;;
2022/05/12 05:18:45;;;;;;;4.849999;3.65;;;;;;;20.15;53.06738;95421.72;;;;
2022/05/12 05:19:45;;;;;;;4.5;3.55;;;;;;;20.38;52.66309;95442.27;;;;
2022/05/12 05:20:46;;;;;;;4.5;3.55;;;;;;;20.38;52.66309;95442.27;;;;
2022/05/12 05:21:48;;;;;;;4.5;3.55;;;;;;;20.38;52.66309;95442.27;;;;
2022/05/12 05:22:48;;;;;;;4.5;3.55;;;;;;;20.38;52.66309;95442.27;;;;
2022/05/12 05:23:49;;;;;;;4.5;3.55;;;;;;;20.38;52.66309;95442.27;;;;
2022/05/12 05:24:50;;;;;;;4.5;3.55;;;;;;;20.38;52.66309;95442.27;;;;
2022/05/12 05:25:50;;;;;;;4.5;3.55;;;;;;;20.38;52.66309;95442.27;;;;
2022/05/12 05:26:51;;;;;;;4.5;3.55;;;;;;;20.38;52.66309;95442.27;;;;
2022/05/12 05:27:52;;;;;;;4.5;3.55;;;;;;;20.38;52.66309;95442.27;;;;
2022/05/12 05:28:53;;;;;;;4.5;3.55;;;;;;;20.38;52.66309;95442.27;;;;
2022/05/12 05:29:54;;;;;;;4.5;3.55;;;;;;;20.38;52.66309;95442.27;;;;
2022/05/12 05:30:54;;;;;;;6.050001;4.149999;;;;;;;20.54;52.25977;95461.89;;;;
2022/05/12 05:31:55;;;;;;;6.050001;4.149999;;;;;;;20.54;52.25977;95461.89;;;;
2022/05/12 05:32:56;;;;;;;6.050001;4.149999;;;;;;;20.54;52.25977;95461.89;;;;
2022/05/12 05:33:56;;;;;;;6.050001;4.149999;;;;;;;20.54;52.25977;95461.89;;;;
2022/05/12 05:34:57;;;;;;;6.050001;4.149999;;;;;;;20.54;52.25977;95461.89;;;;
2022/05/12 05:35:57;;;;;;;6.050001;4.149999;;;;;;;20.54;52.25977;95461.89;;;;
2022/05/12 05:36:58;;;;;;;6.050001;4.149999;;;;;;;20.54;52.25977;95461.89;;;;
2022/05/12 05:37:58;;;;;;;6.050001;4.149999;;;;;;;20.54;52.25977;95461.89;;;;
2022/05/12 05:38:59;;;;;;;6.050001;4.149999;;;;;;;20.54;52.25977;95461.89;;;;
2022/05/12 05:39:59;;;;;;;6.050001;4.149999;;;;;;;20.54;52.25977;95461.89;;;;
2022/05/12 05:41:00;;;;;;;3.8;3.3;;;;;;;20.7;51.96777;95476.92;;;;
2022/05/12 05:42:01;;;;;;;3.8;3.3;;;;;;;20.7;51.96777;95476.92;;;;
2022/05/12 05:43:05;;;;;;;3.8;3.3;;;;;;;20.7;51.96777;95476.92;;;;
2022/05/12 05:44:06;;;;;;;3.8;3.3;;;;;;;20.7;51.96777;95476.92;;;;
2022/05/12 05:45:10;;;;;;;3.8;3.3;;;;;;;20.7;51.96777;95476.92;;;;